Airfield :
LOGIN :

Register | Disclaimer

   EN    FR    IT 

 










Legend :    VFR   Marginal VFR   IFR   Intensive IFR   Very Intensive IFR
Visi :
Ceiling :
>= 8 km
>= 3000ft
5 to 8 km
1000 to 3000 ft
1500m to 5 km
500 to 1000 ft
800 to 1500m
200 to 500 ft
< 800m
< 200 ft
Symbols :   Thunderstorms  Fog  Heavy snow  Heavy precipitations  Wind > 20 kt
SIGMETs :     Misc.  Thunderstorms  Icing  Turbulence  Mountain Waves  Volcanic Ashes







- Airport Elevation : 622 ft
- IATA code : BRS
- Download approach charts


EGGD - Bristol Int.

CURRENT METAR :
  • 190820Z AUTO 25009KT 9999 OVC002 15/15 Q1024

EXPIRED METARs :
  • 190750Z AUTO 25008KT 6000 OVC001 15/15 Q1024
  • 190720Z AUTO 26010KT 9999 OVC001 15/15 Q1024
  • 190650Z AUTO 25010KT 9999 OVC001 15/15 Q1023
  • 190620Z AUTO 25010KT 9999 OVC001 15/15 Q1023
  • 190550Z AUTO 25009KT 4800 BR OVC001 14/14 Q1023
  • 190520Z 26013KT 9999 SCT003 BKN004 14/14 Q1023

TAF TAF EGGD
Valid from the 19 at 06:00 until the 20 at 06:00 UTC


190455Z 1906/2006 25015KT 0300 FG BKN001
TEMPO 1906/1908 2000 RADZ BR BKN003
PROB30
TEMPO 1906/1908 9999 NSW
BECMG 1908/1910 25005KT 9999 NSW BKN009
TEMPO 1910/1918 SCT015
TEMPO 1918/1921 6000
BECMG 1921/1924 3000 BR -DZ BKN002
TEMPO 2000/2006 0300 FG BKN001
ATIS : +44 1275 473 666
No reported NOTAMs for that airfield.
1 SIGMET reported for the London FIR (EGTT) :
 
Severe mountain waves
EGTT SIGMET 01 VALID 190605/191000 EGRR
EGTT LONDON FIR SEV MTW FCST WI N5500 E00200 - N5330 E00200 - N5330 W00300 - N5500 W00500 - N5500 E00200 FL040/240 STNR NC=



MET'MAP, your aeronautical weather chart ! - Copyright ORBIFLY December 2007 - Disclaimer

ORBIFLY MET'MAP TEAM :

Programming & Development : Alexandra Zaïnal
Concept & Development : Baudouin d'Aumeries
Co-Development & Prog : Marc-Olivier Méhu
Technical & hardware support : Manuel Goepfert

Contact : metmap@orbifly.com




SOURCES & CREDITS :

   NOAA